Time;durP1;ratioP1;P1;durP2;ratioP2;P2;SDS_P1;SDS_P2;PMS_P1;PMS_P2;Temp;Humidity;BMP_temperature;BMP_pressure;BME280_temperature;BME280_humidity;BME280_pressure;Samples;Min_cycle;Max_cycle;Signal;HPM_P1;HPM_P2
2022/10/08 00:04:38;;;;;;;9.52;2.13;;;15.20;51.70;;;;;;5206600;22;20064;-53
2022/10/08 00:07:06;;;;;;;5.88;1.88;;;15.20;51.70;;;;;;5018520;28;20064;-42
2022/10/08 00:09:34;;;;;;;10.50;1.75;;;15.10;51.70;;;;;;5015452;28;20340;-47
2022/10/08 00:12:02;;;;;;;4.82;1.42;;;15.10;51.70;;;;;;5017795;28;20061;-45
2022/10/08 00:14:29;;;;;;;10.13;1.60;;;15.10;51.70;;;;;;5016073;28;20061;-42
2022/10/08 00:16:56;;;;;;;4.80;1.60;;;15.10;51.70;;;;;;5016736;28;20080;-45
2022/10/08 00:19:24;;;;;;;7.45;1.60;;;15.10;51.80;;;;;;5018073;28;20057;-42
2022/10/08 00:21:55;;;;;;;5.95;1.58;;;15.10;51.80;;;;;;5019680;28;20057;-44
2022/10/08 00:24:23;;;;;;;11.57;1.80;;;15.10;51.90;;;;;;5020353;28;20072;-46
2022/10/08 00:26:51;;;;;;;9.77;1.83;;;15.10;51.90;;;;;;5020560;28;20055;-43
2022/10/08 00:29:21;;;;;;;8.15;1.60;;;15.10;51.90;;;;;;5021520;28;20045;-42
2022/10/08 00:31:50;;;;;;;7.03;1.98;;;15.10;51.90;;;;;;5018852;28;20060;-45
2022/10/08 00:34:21;;;;;;;10.38;1.65;;;15.10;51.90;;;;;;5020985;28;20532;-46
2022/10/08 00:36:51;;;;;;;10.70;1.77;;;15.00;51.90;;;;;;5021248;28;20372;-44
2022/10/08 00:39:20;;;;;;;5.32;1.63;;;15.00;51.90;;;;;;5021525;28;20049;-43
2022/10/08 00:41:49;;;;;;;4.03;1.45;;;15.10;51.90;;;;;;5020516;28;20061;-43
2022/10/08 00:44:54;;;;;;;7.82;1.48;;;15.00;51.90;;;;;;5022042;28;20500;-42
2022/10/08 00:47:35;;;;;;;3.40;1.17;;;15.10;52.00;;;;;;5011498;28;20061;-45
2022/10/08 00:50:09;;;;;;;6.38;1.58;;;15.10;51.90;;;;;;5019868;28;20054;-42
2022/10/08 00:52:40;;;;;;;5.45;1.30;;;15.00;51.90;;;;;;5022356;28;20084;-43
2022/10/08 00:55:09;;;;;;;4.60;1.30;;;15.00;51.90;;;;;;5020614;28;20049;-44
2022/10/08 00:57:37;;;;;;;7.88;1.50;;;15.00;51.90;;;;;;5019701;28;20404;-44
2022/10/08 01:00:09;;;;;;;6.13;1.63;;;15.00;51.90;;;;;;5017825;28;20049;-44
2022/10/08 01:02:38;;;;;;;8.40;1.90;;;15.00;52.00;;;;;;5020736;28;20060;-45
2022/10/08 01:05:06;;;;;;;6.18;1.48;;;15.00;52.00;;;;;;5022220;28;20053;-45
2022/10/08 01:07:42;;;;;;;5.72;1.35;;;15.00;51.90;;;;;;5019062;28;20065;-43
2022/10/08 01:10:17;;;;;;;7.63;1.70;;;15.00;51.90;;;;;;5019463;28;20045;-43
2022/10/08 01:12:59;;;;;;;8.27;2.00;;;15.00;51.90;;;;;;5020994;28;20512;-45
2022/10/08 01:15:34;;;;;;;7.53;1.80;;;15.00;51.90;;;;;;5020742;28;20057;-45
2022/10/08 01:18:09;;;;;;;6.47;1.50;;;15.00;51.90;;;;;;5019073;28;20523;-44
2022/10/08 01:20:53;;;;;;;6.32;1.85;;;15.00;51.90;;;;;;5020245;28;20064;-42
2022/10/08 01:23:53;;;;;;;7.40;2.20;;;15.00;51.90;;;;;;5024506;28;20477;-47
2022/10/08 01:26:38;;;;;;;7.60;1.50;;;15.00;51.80;;;;;;5023881;28;20057;-49
2022/10/08 01:29:13;;;;;;;7.03;1.58;;;15.00;51.80;;;;;;5023704;28;20064;-45
2022/10/08 01:31:44;;;;;;;8.80;1.30;;;15.00;51.80;;;;;;5020255;28;20508;-43
2022/10/08 01:34:17;;;;;;;6.60;1.50;;;15.00;51.80;;;;;;5023952;28;20492;-46
2022/10/08 01:36:47;;;;;;;6.53;1.52;;;15.00;51.80;;;;;;5022331;28;20068;-42
2022/10/08 01:39:18;;;;;;;4.13;1.38;;;15.00;51.80;;;;;;5021393;28;20057;-47
2022/10/08 01:41:55;;;;;;;6.28;1.88;;;15.00;51.80;;;;;;5024576;28;20057;-45
2022/10/08 01:44:27;;;;;;;5.07;1.50;;;15.00;51.80;;;;;;5024772;28;20408;-43
2022/10/08 01:46:58;;;;;;;6.95;1.50;;;15.00;51.80;;;;;;5021466;28;20050;-41
2022/10/08 01:49:29;;;;;;;6.40;2.00;;;15.00;51.80;;;;;;5020106;28;20052;-44
2022/10/08 01:52:03;;;;;;;6.50;1.60;;;15.00;51.80;;;;;;5019441;28;20439;-43
2022/10/08 01:54:33;;;;;;;8.00;1.77;;;14.90;51.70;;;;;;5023758;28;20053;-44
2022/10/08 01:57:04;;;;;;;6.07;1.45;;;15.00;51.70;;;;;;5022855;28;20057;-44
2022/10/08 01:59:37;;;;;;;10.43;1.60;;;14.90;51.70;;;;;;5025905;28;20504;-44
2022/10/08 02:02:13;;;;;;;7.75;2.03;;;14.90;51.70;;;;;;5021610;28;20057;-43
2022/10/08 02:04:40;;;;;;;5.60;1.58;;;14.90;51.70;;;;;;5024035;28;20053;-48
2022/10/08 02:07:11;;;;;;;8.32;1.58;;;14.90;51.60;;;;;;5025382;28;20054;-51
2022/10/08 02:09:40;;;;;;;6.15;1.52;;;14.90;51.70;;;;;;5025327;28;20057;-52
2022/10/08 02:12:09;;;;;;;11.73;1.95;;;14.90;51.70;;;;;;5021781;28;20052;-53
2022/10/08 02:14:40;;;;;;;6.97;1.65;;;14.90;51.70;;;;;;5024193;28;20053;-52
2022/10/08 02:17:25;;;;;;;7.40;1.77;;;14.90;51.70;;;;;;5021674;28;20489;-53
2022/10/08 02:19:57;;;;;;;9.65;1.73;;;14.90;51.70;;;;;;5022492;28;20590;-48
2022/10/08 02:22:29;;;;;;;7.50;1.50;;;14.90;51.70;;;;;;5025664;28;20056;-52
2022/10/08 02:25:00;;;;;;;3.42;1.50;;;14.90;51.70;;;;;;5023941;28;20057;-50
2022/10/08 02:27:36;;;;;;;6.13;1.48;;;14.90;51.70;;;;;;5021631;28;20053;-51
2022/10/08 02:30:09;;;;;;;5.90;1.58;;;14.90;51.70;;;;;;5022872;28;20046;-50
2022/10/08 02:32:45;;;;;;;5.10;1.50;;;14.90;51.70;;;;;;5024691;28;20405;-52
2022/10/08 02:35:17;;;;;;;6.43;1.40;;;14.80;51.70;;;;;;5023729;28;20057;-50
2022/10/08 02:37:49;;;;;;;7.00;1.60;;;14.80;51.60;;;;;;5021258;28;20060;-49
2022/10/08 02:40:18;;;;;;;7.13;1.88;;;14.80;51.70;;;;;;5022780;28;22256;-53
2022/10/08 02:42:51;;;;;;;5.82;1.48;;;14.80;51.70;;;;;;5023806;28;20400;-52
2022/10/08 02:45:24;;;;;;;6.40;1.60;;;14.80;51.70;;;;;;5024316;28;20519;-43
2022/10/08 02:47:55;;;;;;;9.67;1.93;;;14.80;51.80;;;;;;5022226;28;20426;-47
2022/10/08 02:50:27;;;;;;;8.98;1.65;;;14.80;51.80;;;;;;5020963;28;20046;-43
2022/10/08 02:52:55;;;;;;;6.63;1.80;;;14.80;51.80;;;;;;5023511;28;20057;-42
2022/10/08 02:55:30;;;;;;;7.57;1.75;;;14.80;51.80;;;;;;5023690;28;20045;-44
2022/10/08 02:58:01;;;;;;;6.35;1.60;;;14.80;51.90;;;;;;5020403;28;20053;-44
2022/10/08 03:00:36;;;;;;;8.57;1.42;;;14.70;51.80;;;;;;5021361;28;20485;-47
2022/10/08 03:03:09;;;;;;;4.47;1.48;;;14.80;51.90;;;;;;5024127;28;20064;-44
2022/10/08 03:05:38;;;;;;;7.57;1.73;;;14.70;51.90;;;;;;5022938;28;20057;-43
2022/10/08 03:08:08;;;;;;;7.72;1.70;;;14.70;52.40;;;;;;5021877;28;20071;-41
2022/10/08 03:10:37;;;;;;;7.78;1.92;;;14.70;51.90;;;;;;5021475;28;20058;-45
2022/10/08 03:13:06;;;;;;;5.03;1.48;;;14.70;52.00;;;;;;5021880;28;20056;-44
2022/10/08 03:15:36;;;;;;;4.00;1.27;;;14.70;52.00;;;;;;5021490;28;20057;-45
2022/10/08 03:18:08;;;;;;;7.55;1.30;;;14.60;52.00;;;;;;5021523;28;20056;-43
2022/10/08 03:20:40;;;;;;;5.13;1.70;;;14.60;52.10;;;;;;5022073;28;20049;-43
2022/10/08 03:23:08;;;;;;;5.43;1.45;;;14.70;52.10;;;;;;5023455;28;20065;-47
2022/10/08 03:25:35;;;;;;;7.03;1.60;;;14.60;52.10;;;;;;5022806;28;20137;-45
2022/10/08 03:28:02;;;;;;;4.80;1.45;;;14.60;52.10;;;;;;5023397;28;20405;-46
2022/10/08 03:30:30;;;;;;;6.25;1.80;;;14.60;52.20;;;;;;5018655;28;20052;-46
2022/10/08 03:32:58;;;;;;;5.47;1.60;;;14.60;52.20;;;;;;5021556;28;20061;-43
2022/10/08 03:35:25;;;;;;;7.07;1.58;;;14.60;52.30;;;;;;5022514;28;20057;-43
2022/10/08 03:37:53;;;;;;;10.30;2.28;;;14.60;52.30;;;;;;5017807;28;20064;-43
2022/10/08 03:40:21;;;;;;;6.32;1.83;;;14.60;52.40;;;;;;5020466;28;20057;-43
2022/10/08 03:42:48;;;;;;;7.65;1.73;;;14.60;52.40;;;;;;5022609;28;20060;-43
2022/10/08 03:45:15;;;;;;;4.57;1.50;;;14.60;52.50;;;;;;5019885;28;20057;-41
2022/10/08 03:47:42;;;;;;;8.02;1.67;;;14.60;52.50;;;;;;5023114;28;20523;-44
2022/10/08 03:50:11;;;;;;;5.47;1.70;;;14.60;52.50;;;;;;5018838;28;20061;-46
2022/10/08 03:52:38;;;;;;;6.10;1.50;;;14.60;52.60;;;;;;5022978;28;20050;-41
2022/10/08 03:55:06;;;;;;;11.85;1.42;;;14.60;52.60;;;;;;5020284;28;20045;-45
2022/10/08 03:57:34;;;;;;;8.18;1.35;;;14.60;52.70;;;;;;5015918;28;20057;-46
2022/10/08 04:00:01;;;;;;;11.13;1.13;;;14.60;52.70;;;;;;5016143;28;20060;-43
2022/10/08 04:02:28;;;;;;;5.88;1.50;;;14.60;52.70;;;;;;5022847;28;20057;-46
2022/10/08 04:04:55;;;;;;;7.97;1.63;;;14.60;52.80;;;;;;5020948;28;20072;-44
2022/10/08 04:07:24;;;;;;;9.35;2.05;;;14.60;52.80;;;;;;5020094;28;20492;-46
2022/10/08 04:09:51;;;;;;;5.88;1.50;;;14.60;52.80;;;;;;5018249;28;20053;-44
2022/10/08 04:12:19;;;;;;;5.90;1.60;;;14.60;52.90;;;;;;5017610;28;20405;-42
2022/10/08 04:14:46;;;;;;;5.13;1.60;;;14.60;52.90;;;;;;5022475;28;20049;-41
2022/10/08 04:17:13;;;;;;;3.42;1.13;;;14.60;52.90;;;;;;5014670;28;20053;-46
2022/10/08 04:19:40;;;;;;;7.43;1.63;;;14.70;53.00;;;;;;5020309;28;20133;-44
2022/10/08 04:22:07;;;;;;;8.18;1.75;;;14.70;53.00;;;;;;5020457;28;20049;-44
2022/10/08 04:24:36;;;;;;;12.43;2.03;;;14.70;53.10;;;;;;5021769;28;20057;-41
2022/10/08 04:27:03;;;;;;;9.15;1.70;;;14.70;53.10;;;;;;5022798;28;20058;-48
2022/10/08 04:29:30;;;;;;;12.38;2.42;;;14.70;53.10;;;;;;5021220;28;20049;-43
2022/10/08 04:31:58;;;;;;;4.47;1.38;;;14.80;53.20;;;;;;5021760;28;20045;-45
2022/10/08 04:34:25;;;;;;;8.05;1.63;;;14.70;53.20;;;;;;5021326;28;20060;-46
2022/10/08 04:36:52;;;;;;;8.93;1.55;;;14.80;53.20;;;;;;5021810;28;20064;-45
2022/10/08 04:39:19;;;;;;;8.88;2.00;;;14.80;53.20;;;;;;5021739;28;20058;-45
2022/10/08 04:41:48;;;;;;;4.45;1.20;;;14.80;53.20;;;;;;5021485;28;20050;-44
2022/10/08 04:44:15;;;;;;;6.93;1.40;;;14.90;53.30;;;;;;5022571;28;20488;-42
2022/10/08 04:46:42;;;;;;;5.90;1.25;;;14.90;53.20;;;;;;5021234;28;20520;-44
2022/10/08 04:49:09;;;;;;;5.38;1.33;;;14.90;53.20;;;;;;4997964;28;20472;-42
2022/10/08 04:51:36;;;;;;;7.80;1.63;;;14.90;53.20;;;;;;5000916;28;20054;-46
2022/10/08 04:54:04;;;;;;;9.00;1.20;;;14.90;53.30;;;;;;5000816;28;20081;-45
2022/10/08 04:56:33;;;;;;;4.38;1.10;;;14.90;53.20;;;;;;5001353;28;20062;-42
2022/10/08 04:59:03;;;;;;;8.07;1.50;;;14.90;53.20;;;;;;5007011;28;20065;-42
2022/10/08 05:01:30;;;;;;;3.88;1.40;;;15.00;53.20;;;;;;5003680;28;20045;-43
2022/10/08 05:03:59;;;;;;;3.85;1.10;;;14.90;53.20;;;;;;5005661;28;20061;-42
2022/10/08 05:06:28;;;;;;;11.77;1.60;;;15.00;53.20;;;;;;5004809;28;20081;-44
2022/10/08 05:08:56;;;;;;;8.18;1.73;;;15.00;53.20;;;;;;5007097;28;20489;-43
2022/10/08 05:11:25;;;;;;;8.23;1.38;;;15.00;53.20;;;;;;5003759;28;20073;-45
2022/10/08 05:13:53;;;;;;;3.47;1.17;;;15.00;53.30;;;;;;5004759;28;20073;-43
2022/10/08 05:16:22;;;;;;;9.10;1.40;;;15.10;53.40;;;;;;5003471;28;20395;-44
2022/10/08 05:18:50;;;;;;;7.10;1.15;;;15.10;53.50;;;;;;5004717;28;20049;-44
2022/10/08 05:21:20;;;;;;;4.72;1.27;;;15.10;53.60;;;;;;5004901;28;20053;-44
2022/10/08 05:23:47;;;;;;;5.82;1.75;;;15.10;53.60;;;;;;5005958;28;20069;-42
2022/10/08 05:26:16;;;;;;;6.63;1.38;;;15.10;53.70;;;;;;5004765;28;20489;-44
2022/10/08 05:28:45;;;;;;;9.05;1.50;;;15.10;53.70;;;;;;5003946;28;20423;-45
2022/10/08 05:31:13;;;;;;;6.93;1.30;;;15.10;53.70;;;;;;5002961;28;20064;-45
2022/10/08 05:33:41;;;;;;;8.27;1.40;;;15.20;53.80;;;;;;4998360;28;20469;-44
2022/10/08 05:36:15;;;;;;;8.85;1.52;;;15.20;53.80;;;;;;5005707;28;20532;-42
2022/10/08 05:38:42;;;;;;;6.57;1.50;;;15.20;53.80;;;;;;5003331;28;20049;-42
2022/10/08 05:41:11;;;;;;;4.15;1.30;;;15.20;53.70;;;;;;5003265;28;20532;-44
2022/10/08 05:43:39;;;;;;;4.82;1.13;;;15.30;54.20;;;;;;5003301;28;20046;-46
2022/10/08 05:46:06;;;;;;;3.97;1.10;;;15.30;53.70;;;;;;5002830;28;20500;-42
2022/10/08 05:48:33;;;;;;;8.88;1.40;;;15.30;53.70;;;;;;5001301;28;20057;-45
2022/10/08 05:51:06;;;;;;;3.25;0.98;;;15.30;53.70;;;;;;5004212;28;20346;-45
2022/10/08 05:53:37;;;;;;;5.20;1.58;;;15.30;53.70;;;;;;5003840;28;20433;-43
2022/10/08 05:56:07;;;;;;;4.55;1.33;;;15.30;53.70;;;;;;5005327;28;20045;-48
2022/10/08 05:58:35;;;;;;;5.93;1.13;;;15.30;53.60;;;;;;4997860;28;20432;-44
2022/10/08 06:01:06;;;;;;;5.72;1.27;;;15.40;53.70;;;;;;4998510;28;20061;-43
2022/10/08 06:03:34;;;;;;;5.07;1.00;;;15.40;53.70;;;;;;5003273;28;20054;-48
2022/10/08 06:06:03;;;;;;;5.50;1.40;;;15.40;53.70;;;;;;5004550;28;20054;-42
2022/10/08 06:08:32;;;;;;;5.70;1.33;;;15.40;53.70;;;;;;5004436;28;20501;-43
2022/10/08 06:11:00;;;;;;;5.78;1.50;;;15.40;53.70;;;;;;5005319;28;20070;-46
2022/10/08 06:13:27;;;;;;;8.43;1.70;;;15.40;53.70;;;;;;5004359;28;20057;-45
2022/10/08 06:15:55;;;;;;;4.03;1.17;;;15.40;53.70;;;;;;5001154;28;20050;-43
2022/10/08 06:18:23;;;;;;;7.65;1.83;;;15.50;53.80;;;;;;5005277;28;20065;-42
2022/10/08 06:20:50;;;;;;;11.65;1.67;;;15.40;53.70;;;;;;5000675;28;20057;-43
2022/10/08 06:23:18;;;;;;;6.85;1.35;;;15.40;53.80;;;;;;5000216;28;20053;-48
2022/10/08 06:25:47;;;;;;;5.90;1.40;;;15.40;53.90;;;;;;5005370;28;20058;-45
2022/10/08 06:28:15;;;;;;;5.38;1.27;;;15.40;54.00;;;;;;5001954;28;20069;-42
2022/10/08 06:30:43;;;;;;;6.30;1.13;;;15.50;54.10;;;;;;4998615;28;20411;-43
2022/10/08 06:33:11;;;;;;;7.35;1.95;;;15.50;54.20;;;;;;4999063;28;20397;-45
2022/10/08 06:35:38;;;;;;;8.30;1.23;;;15.50;54.20;;;;;;5002513;28;20054;-42
2022/10/08 06:38:06;;;;;;;4.15;1.42;;;15.50;54.30;;;;;;5002561;28;20057;-48
2022/10/08 06:40:37;;;;;;;6.38;1.35;;;15.50;54.40;;;;;;5002684;28;20533;-45
2022/10/08 06:43:07;;;;;;;6.85;1.52;;;15.50;54.40;;;;;;5001610;28;20042;-48
2022/10/08 06:45:38;;;;;;;7.72;1.90;;;15.50;54.40;;;;;;5001390;28;20054;-48
2022/10/08 06:48:06;;;;;;;6.40;1.30;;;15.50;54.40;;;;;;5001391;28;20069;-44
2022/10/08 06:50:34;;;;;;;5.40;1.15;;;15.50;54.40;;;;;;5000222;28;20057;-43
2022/10/08 06:53:01;;;;;;;6.25;1.63;;;15.50;54.40;;;;;;5002579;28;20409;-42
2022/10/08 06:55:28;;;;;;;4.22;1.27;;;15.60;54.50;;;;;;5002594;28;20058;-44
2022/10/08 06:57:55;;;;;;;4.75;1.38;;;15.60;54.50;;;;;;4999822;28;20057;-43
2022/10/08 07:00:24;;;;;;;4.40;1.50;;;15.50;54.50;;;;;;4999740;28;20057;-42
2022/10/08 07:02:51;;;;;;;7.15;1.52;;;15.60;54.50;;;;;;5002310;28;20056;-43
2022/10/08 07:05:19;;;;;;;6.45;1.55;;;15.60;54.60;;;;;;5002929;28;20061;-44
2022/10/08 07:07:46;;;;;;;7.25;1.80;;;15.60;54.70;;;;;;5002868;28;20089;-43
2022/10/08 07:10:13;;;;;;;6.60;1.98;;;15.60;54.70;;;;;;4995632;28;20053;-42
2022/10/08 07:12:40;;;;;;;9.98;1.50;;;15.60;54.70;;;;;;4998317;28;20057;-44
2022/10/08 07:15:09;;;;;;;6.53;1.50;;;15.70;54.80;;;;;;4998996;28;20061;-44
2022/10/08 07:17:37;;;;;;;7.47;1.75;;;15.70;54.90;;;;;;4994679;28;20057;-43
2022/10/08 07:20:05;;;;;;;5.88;1.20;;;15.70;55.10;;;;;;5000792;28;20516;-47
2022/10/08 07:22:33;;;;;;;6.40;1.58;;;15.70;55.30;;;;;;4999887;28;21663;-42
2022/10/08 07:25:00;;;;;;;4.85;1.85;;;15.70;55.30;;;;;;4998561;28;20053;-44
2022/10/08 07:27:27;;;;;;;12.60;2.03;;;15.70;55.40;;;;;;5000835;28;20054;-42
2022/10/08 07:29:55;;;;;;;7.32;1.88;;;15.80;55.60;;;;;;4999440;28;20420;-44
2022/10/08 07:32:22;;;;;;;4.50;1.75;;;15.80;55.70;;;;;;5002531;28;20058;-42
2022/10/08 07:34:50;;;;;;;4.13;1.30;;;15.80;55.70;;;;;;5001685;28;20069;-42
2022/10/08 07:37:18;;;;;;;7.80;1.77;;;15.80;55.70;;;;;;5001604;28;20057;-44
2022/10/08 07:39:45;;;;;;;5.38;1.77;;;15.80;55.90;;;;;;5002674;28;20501;-42
2022/10/08 07:42:12;;;;;;;5.90;1.80;;;15.80;56.00;;;;;;5001352;28;20064;-42
2022/10/08 07:44:43;;;;;;;7.82;1.98;;;15.80;56.10;;;;;;4997734;28;20065;-44
2022/10/08 07:47:10;;;;;;;4.50;1.42;;;15.80;56.60;;;;;;4996048;28;20065;-42
2022/10/08 07:49:37;;;;;;;6.72;1.60;;;15.80;56.30;;;;;;5000327;28;20065;-45
2022/10/08 07:52:06;;;;;;;4.85;1.90;;;15.80;56.30;;;;;;4991111;28;20069;-49
2022/10/08 07:54:34;;;;;;;7.32;1.83;;;15.80;56.40;;;;;;4994400;28;20057;-46
2022/10/08 07:57:01;;;;;;;5.00;1.60;;;15.90;56.60;;;;;;5001100;28;20425;-45
2022/10/08 07:59:28;;;;;;;5.50;1.75;;;15.90;56.70;;;;;;5000064;28;20130;-43
2022/10/08 08:01:55;;;;;;;9.73;2.40;;;15.90;56.70;;;;;;4996143;28;20418;-44
2022/10/08 08:04:25;;;;;;;6.68;1.90;;;16.00;56.90;;;;;;4998559;28;20505;-45
2022/10/08 08:06:52;;;;;;;9.85;2.33;;;16.00;56.90;;;;;;4996781;28;20489;-43
2022/10/08 08:09:21;;;;;;;9.35;2.10;;;16.00;56.90;;;;;;5000240;28;20093;-43
2022/10/08 08:11:48;;;;;;;10.15;2.63;;;16.00;56.80;;;;;;5000512;28;20057;-43
2022/10/08 08:14:16;;;;;;;10.60;2.17;;;16.00;57.00;;;;;;5000871;28;20046;-44
2022/10/08 08:16:43;;;;;;;9.07;2.15;;;16.00;57.10;;;;;;5000099;28;20046;-44
2022/10/08 08:19:10;;;;;;;6.05;1.92;;;16.00;57.10;;;;;;4999463;28;20056;-46
2022/10/08 08:21:38;;;;;;;8.73;1.77;;;16.00;57.20;;;;;;5000358;28;20065;-47
2022/10/08 08:24:11;;;;;;;7.82;2.00;;;16.00;57.30;;;;;;4994388;28;20049;-41
2022/10/08 08:26:42;;;;;;;8.68;2.50;;;16.00;57.40;;;;;;5001835;28;20064;-44
2022/10/08 08:29:11;;;;;;;8.32;2.50;;;16.00;57.60;;;;;;5000208;28;20504;-44
2022/10/08 08:31:42;;;;;;;7.75;2.38;;;16.00;57.60;;;;;;5001924;28;20528;-44
2022/10/08 08:34:11;;;;;;;14.73;3.22;;;16.00;57.70;;;;;;5003586;28;20053;-41
2022/10/08 08:36:40;;;;;;;10.93;2.70;;;16.00;57.80;;;;;;5006308;28;20061;-42
2022/10/08 08:39:13;;;;;;;12.65;2.80;;;16.00;57.90;;;;;;5002567;28;20050;-42
2022/10/08 08:41:59;;;;;;;13.45;3.42;;;16.00;58.10;;;;;;5002277;28;20049;-42
2022/10/08 08:44:31;;;;;;;6.30;2.67;;;16.00;58.40;;;;;;5003814;28;20054;-45
2022/10/08 08:47:03;;;;;;;10.48;3.10;;;16.00;58.60;;;;;;5005033;28;20057;-43
2022/10/08 08:49:33;;;;;;;14.05;2.85;;;16.00;58.60;;;;;;5006018;28;20413;-45
2022/10/08 08:52:02;;;;;;;16.50;3.83;;;16.10;58.50;;;;;;5001950;28;20049;-42
2022/10/08 08:54:29;;;;;;;14.45;3.92;;;16.10;58.60;;;;;;5002549;28;20411;-40
2022/10/08 08:57:08;;;;;;;14.30;3.90;;;16.00;58.50;;;;;;5003120;28;20092;-42
2022/10/08 08:59:41;;;;;;;12.02;3.35;;;16.10;58.60;;;;;;4996853;28;20473;-44
2022/10/08 09:02:19;;;;;;;13.27;3.72;;;16.10;58.60;;;;;;4999678;28;20061;-42
2022/10/08 09:04:52;;;;;;;10.95;4.22;;;16.20;58.60;;;;;;5003139;28;20065;-43
2022/10/08 09:07:24;;;;;;;13.80;3.60;;;16.20;58.50;;;;;;5005817;28;20532;-43
2022/10/08 09:09:54;;;;;;;17.02;3.75;;;16.20;58.10;;;;;;5004880;28;20053;-40
2022/10/08 09:12:31;;;;;;;17.10;3.78;;;16.20;57.80;;;;;;5002669;28;20056;-41
2022/10/08 09:15:00;;;;;;;12.32;2.90;;;16.20;57.90;;;;;;4996177;28;20045;-41
2022/10/08 09:17:31;;;;;;;16.15;3.95;;;16.30;58.00;;;;;;4997524;28;20064;-42
2022/10/08 09:19:59;;;;;;;12.35;3.67;;;16.30;57.80;;;;;;4999661;28;20057;-47
2022/10/08 09:22:29;;;;;;;13.82;3.92;;;16.40;57.80;;;;;;4998007;28;20058;-43
2022/10/08 09:24:59;;;;;;;12.77;4.05;;;16.40;57.50;;;;;;4998583;28;20057;-44
2022/10/08 09:27:43;;;;;;;16.77;4.28;;;16.50;57.40;;;;;;4998696;28;20056;-41
2022/10/08 09:30:27;;;;;;;17.23;3.70;;;16.50;57.10;;;;;;4997038;28;20064;-41
2022/10/08 09:32:57;;;;;;;12.32;3.50;;;16.60;57.30;;;;;;4993092;28;20412;-40
2022/10/08 09:35:24;;;;;;;15.05;3.97;;;16.60;56.80;;;;;;5003993;28;20490;-39
2022/10/08 09:37:52;;;;;;;17.27;4.18;;;16.60;56.80;;;;;;4999497;28;20054;-51
2022/10/08 09:40:22;;;;;;;13.63;3.28;;;16.60;56.80;;;;;;5001106;28;20134;-47
2022/10/08 09:43:13;;;;;;;14.07;3.92;;;16.60;56.70;;;;;;5003067;28;20057;-43
2022/10/08 09:45:44;;;;;;;15.27;3.63;;;16.70;56.30;;;;;;5000829;28;20046;-39
2022/10/08 09:48:20;;;;;;;14.07;3.50;;;16.60;56.30;;;;;;5001343;28;20050;-42
2022/10/08 09:50:51;;;;;;;14.70;3.90;;;16.60;56.40;;;;;;4996605;28;20064;-43
2022/10/08 09:53:19;;;;;;;9.75;3.33;;;16.70;56.60;;;;;;4996112;28;20054;-44
2022/10/08 09:55:53;;;;;;;20.35;4.22;;;16.70;56.80;;;;;;4997691;28;20054;-44
2022/10/08 09:58:22;;;;;;;;;;;16.70;56.60;;;;;;4995413;28;20058;-42
2022/10/08 10:01:14;;;;;;;20.88;5.88;;;16.80;56.20;;;;;;4995846;28;19925;-46
2022/10/08 10:03:48;;;;;;;12.23;4.00;;;16.80;55.30;;;;;;4985059;28;20118;-42
2022/10/08 10:06:24;;;;;;;8.95;2.67;;;16.80;55.10;;;;;;5002108;28;20066;-42
2022/10/08 10:08:57;;;;;;;20.77;3.33;;;16.80;55.00;;;;;;4999724;28;20058;-41
2022/10/08 10:11:34;;;;;;;9.05;2.65;;;16.80;54.40;;;;;;5001327;28;20073;-42
2022/10/08 10:14:11;;;;;;;14.93;3.13;;;16.80;54.30;;;;;;4997085;28;20042;-46
2022/10/08 10:16:40;;;;;;;13.25;3.25;;;16.80;54.80;;;;;;4994754;28;20056;-43
2022/10/08 10:19:14;;;;;;;7.40;2.60;;;16.80;54.50;;;;;;5000971;28;20060;-46
2022/10/08 10:21:49;;;;;;;13.35;2.58;;;16.90;54.50;;;;;;4999738;28;20054;-43
2022/10/08 10:24:38;;;;;;;8.48;2.00;;;16.90;54.10;;;;;;5002738;28;20054;-45
2022/10/08 10:27:09;;;;;;;8.35;2.38;;;17.00;54.50;;;;;;5003755;28;20409;-42
2022/10/08 10:29:47;;;;;;;9.25;2.40;;;17.10;54.00;;;;;;4998880;28;20049;-42
2022/10/08 10:32:19;;;;;;;8.68;2.20;;;17.10;53.20;;;;;;4997310;28;20061;-43
2022/10/08 10:34:55;;;;;;;6.38;2.05;;;17.20;52.70;;;;;;5002521;28;20054;-43
2022/10/08 10:37:38;;;;;;;11.18;2.40;;;17.20;52.30;;;;;;4997500;28;20058;-45
2022/10/08 10:40:29;;;;;;;12.38;2.38;;;17.30;52.10;;;;;;4999652;28;20046;-43
2022/10/08 10:43:10;;;;;;;11.80;2.50;;;17.30;51.80;;;;;;4999497;28;20064;-41
2022/10/08 10:45:41;;;;;;;9.30;2.28;;;17.30;51.20;;;;;;4998986;28;20052;-40
2022/10/08 10:48:12;;;;;;;12.85;2.47;;;17.30;51.20;;;;;;5000808;28;20049;-42
2022/10/08 10:50:43;;;;;;;16.00;3.03;;;17.30;51.20;;;;;;4994710;28;20516;-45
2022/10/08 10:53:18;;;;;;;12.55;2.28;;;17.30;51.50;;;;;;5001141;28;20076;-44
2022/10/08 10:55:53;;;;;;;9.95;3.05;;;17.30;51.70;;;;;;5003338;28;20054;-45
2022/10/08 10:58:42;;;;;;;4.88;1.75;;;17.40;51.40;;;;;;4995363;28;20068;-44
2022/10/08 11:01:22;;;;;;;8.90;2.40;;;17.30;51.60;;;;;;4999665;28;20046;-44
2022/10/08 11:04:00;;;;;;;6.50;1.83;;;17.40;51.00;;;;;;4998663;28;20432;-45
2022/10/08 11:06:46;;;;;;;9.77;2.25;;;17.40;50.70;;;;;;5001029;28;20053;-42
2022/10/08 11:09:26;;;;;;;5.00;1.60;;;17.50;50.50;;;;;;5000586;28;20448;-45
2022/10/08 11:11:58;;;;;;;6.95;1.92;;;17.50;50.20;;;;;;5000640;28;20050;-44
2022/10/08 11:14:53;;;;;;;8.52;1.80;;;17.50;50.90;;;;;;5002553;28;20053;-46
2022/10/08 11:17:49;;;;;;;6.60;1.58;;;17.50;49.60;;;;;;4998260;28;20057;-45
2022/10/08 11:20:38;;;;;;;7.25;2.40;;;17.60;50.00;;;;;;4993470;28;20487;-43
2022/10/08 11:23:31;;;;;;;9.48;1.63;;;17.60;49.60;;;;;;4997822;28;20053;-42
2022/10/08 11:26:02;;;;;;;9.07;1.80;;;17.60;49.50;;;;;;4996944;28;20061;-43
2022/10/08 11:28:49;;;;;;;7.15;2.72;;;17.60;49.40;;;;;;4997755;28;20124;-42
2022/10/08 11:31:26;;;;;;;9.63;1.90;;;17.60;48.00;;;;;;4999166;28;20088;-47
2022/10/08 11:33:56;;;;;;;5.25;1.55;;;17.70;48.70;;;;;;5002413;28;20054;-44
2022/10/08 11:36:33;;;;;;;7.80;1.58;;;17.80;49.00;;;;;;5001703;28;20508;-43
2022/10/08 11:39:10;;;;;;;7.90;1.63;;;17.80;49.00;;;;;;5003484;28;20509;-46
2022/10/08 11:41:46;;;;;;;8.70;1.85;;;17.90;48.00;;;;;;5001862;28;20046;-43
2022/10/08 11:44:14;;;;;;;7.80;1.90;;;17.90;48.00;;;;;;4998058;28;20128;-42
2022/10/08 11:46:42;;;;;;;5.72;1.80;;;18.00;48.20;;;;;;4994444;28;20066;-44
2022/10/08 11:49:57;;;;;;;11.70;2.10;;;18.10;48.70;;;;;;5001179;28;20054;-42
2022/10/08 11:52:30;;;;;;;4.72;1.58;;;18.20;48.20;;;;;;4962216;28;20054;-47
2022/10/08 11:54:59;;;;;;;7.75;1.50;;;18.20;47.90;;;;;;4954591;28;20058;-44
2022/10/08 11:57:32;;;;;;;7.00;1.45;;;18.20;47.30;;;;;;4976919;28;20050;-47
2022/10/08 12:00:01;;;;;;;6.55;1.60;;;18.20;47.40;;;;;;4998521;28;20075;-46
2022/10/08 12:02:31;;;;;;;5.47;1.60;;;18.30;47.70;;;;;;4996443;28;20058;-48
2022/10/08 12:05:15;;;;;;;8.02;1.80;;;18.20;47.70;;;;;;4991754;28;20046;-45
2022/10/08 12:07:50;;;;;;;11.85;1.38;;;18.20;48.20;;;;;;5000891;28;20065;-46
2022/10/08 12:10:33;;;;;;;5.82;1.48;;;18.30;48.30;;;;;;5001601;28;20428;-48
2022/10/08 12:13:30;;;;;;;9.88;1.52;;;18.30;47.50;;;;;;4998380;28;20050;-43
2022/10/08 12:16:06;;;;;;;8.85;2.03;;;18.30;47.40;;;;;;4994293;28;20132;-41
2022/10/08 12:18:52;;;;;;;10.10;2.08;;;18.20;48.00;;;;;;4997239;28;20516;-40
2022/10/08 12:21:50;;;;;;;11.73;2.20;;;18.20;48.50;;;;;;4995146;28;20057;-48
2022/10/08 12:24:53;;;;;;;12.00;2.08;;;18.10;48.80;;;;;;4941164;28;20059;-45
2022/10/08 12:27:38;;;;;;;9.85;1.85;;;18.10;49.10;;;;;;5001693;28;20050;-44
2022/10/08 12:30:08;;;;;;;6.47;1.80;;;18.10;48.60;;;;;;5000726;28;20053;-47
2022/10/08 12:32:54;;;;;;;9.75;2.33;;;18.10;48.20;;;;;;5001856;28;20069;-42
2022/10/08 12:35:25;;;;;;;7.10;2.50;;;18.00;46.90;;;;;;4999443;28;20057;-45
2022/10/08 12:38:23;;;;;;;4.97;1.20;;;18.00;47.90;;;;;;4999640;28;20050;-43
2022/10/08 12:41:00;;;;;;;5.90;1.38;;;18.00;47.60;;;;;;4999239;28;20054;-41
2022/10/08 12:43:36;;;;;;;3.70;1.30;;;18.10;47.60;;;;;;5001787;28;20061;-46
2022/10/08 12:46:18;;;;;;;7.07;1.40;;;18.20;47.30;;;;;;5000094;28;20046;-44
2022/10/08 12:48:51;;;;;;;6.75;1.77;;;18.20;47.80;;;;;;5001084;28;20054;-45
2022/10/08 12:51:28;;;;;;;6.70;1.38;;;18.30;47.60;;;;;;4997895;28;20057;-44
2022/10/08 12:53:56;;;;;;;9.43;2.03;;;18.40;47.50;;;;;;5003182;28;20489;-43
2022/10/08 12:56:27;;;;;;;6.07;1.30;;;18.50;46.70;;;;;;5001052;28;20065;-46
2022/10/08 12:58:58;;;;;;;8.13;1.60;;;18.50;47.00;;;;;;4999751;28;21324;-44
2022/10/08 13:01:25;;;;;;;8.15;1.90;;;18.50;46.30;;;;;;5001143;28;20065;-43
2022/10/08 13:04:08;;;;;;;7.45;1.42;;;18.50;46.40;;;;;;5000936;28;20053;-41
2022/10/08 13:06:35;;;;;;;9.55;1.45;;;18.50;45.50;;;;;;5001632;28;20054;-46
2022/10/08 13:09:13;;;;;;;8.98;1.40;;;18.50;45.60;;;;;;5002581;28;20053;-43
2022/10/08 13:11:42;;;;;;;9.48;1.77;;;18.40;45.80;;;;;;5000301;28;20540;-44
2022/10/08 13:14:27;;;;;;;9.13;1.73;;;18.40;46.50;;;;;;5000455;28;20061;-41